Time;durP1;ratioP1;P1;durP2;ratioP2;P2;SDS_P1;SDS_P2;PMS_P1;PMS_P2;Temp;Humidity;BMP_temperature;BMP_pressure;BME280_temperature;BME280_humidity;BME280_pressure;Samples;Min_cycle;Max_cycle;Signal;HPM_P1;HPM_P2
2022/03/12 00:02:09;;;;;;;20.80;9.30;;;0.40;99.90;;;;;;5008052;28;20058;-71
2022/03/12 00:04:37;;;;;;;49.30;17.73;;;0.40;99.90;;;;;;5008596;28;20415;-70
2022/03/12 00:07:09;;;;;;;89.95;32.42;;;0.40;99.90;;;;;;5009210;28;20053;-70
2022/03/12 00:09:38;;;;;;;80.93;29.83;;;0.50;99.90;;;;;;5011529;28;20057;-71
2022/03/12 00:12:07;;;;;;;97.78;31.48;;;0.60;99.90;;;;;;4974546;28;20049;-71
2022/03/12 00:14:37;;;;;;;78.95;26.85;;;0.60;99.90;;;;;;4992190;28;20141;-70
2022/03/12 00:17:05;;;;;;;66.70;24.20;;;0.70;99.90;;;;;;5011148;28;20073;-70
2022/03/12 00:19:32;;;;;;;47.58;18.92;;;0.70;99.90;;;;;;4993712;28;20042;-71
2022/03/12 00:22:03;;;;;;;45.85;17.50;;;0.80;99.90;;;;;;5008794;28;20046;-70
2022/03/12 00:24:31;;;;;;;52.63;18.10;;;0.80;99.90;;;;;;4992566;28;20391;-70
2022/03/12 00:27:00;;;;;;;50.83;19.58;;;0.80;99.90;;;;;;5011230;28;20042;-70
2022/03/12 00:29:27;;;;;;;51.00;17.58;;;0.90;99.90;;;;;;5009769;28;20536;-69
2022/03/12 00:31:55;;;;;;;35.58;14.05;;;0.90;99.90;;;;;;4990784;28;20056;-69
2022/03/12 00:34:22;;;;;;;30.92;13.73;;;0.90;99.90;;;;;;5009762;28;20099;-69
2022/03/12 00:36:49;;;;;;;26.30;12.25;;;0.90;99.90;;;;;;4976795;28;20050;-69
2022/03/12 00:39:18;;;;;;;20.48;9.50;;;0.80;99.90;;;;;;5008374;28;20046;-69
2022/03/12 00:41:45;;;;;;;18.25;8.55;;;0.80;99.90;;;;;;5000384;28;20470;-75
2022/03/12 00:44:16;;;;;;;22.17;9.65;;;0.80;99.90;;;;;;4994165;28;20073;-75
2022/03/12 00:46:43;;;;;;;15.13;6.93;;;0.80;99.90;;;;;;4977795;28;20049;-75
2022/03/12 00:49:13;;;;;;;23.83;9.23;;;0.80;99.90;;;;;;5006746;28;20042;-76
2022/03/12 00:51:42;;;;;;;14.85;7.35;;;0.80;99.90;;;;;;4991816;28;20479;-74
2022/03/12 00:54:10;;;;;;;11.27;6.80;;;0.80;99.90;;;;;;5011459;28;20045;-76
2022/03/12 00:56:39;;;;;;;10.48;6.65;;;0.80;99.90;;;;;;5010081;28;20062;-74
2022/03/12 00:59:07;;;;;;;15.90;7.78;;;0.80;99.90;;;;;;5007163;28;20053;-75
2022/03/12 01:01:36;;;;;;;15.98;8.05;;;0.80;99.90;;;;;;5008491;28;20053;-76
2022/03/12 01:04:06;;;;;;;12.63;7.53;;;0.90;99.90;;;;;;5010428;28;20107;-74
2022/03/12 01:06:34;;;;;;;14.70;7.07;;;0.90;99.90;;;;;;5012083;28;20060;-76
2022/03/12 01:09:01;;;;;;;13.07;7.60;;;0.90;99.90;;;;;;5010920;28;20096;-75
2022/03/12 01:11:29;;;;;;;13.23;8.05;;;0.80;99.90;;;;;;5009055;28;20069;-75
2022/03/12 01:13:56;;;;;;;16.50;8.15;;;0.80;99.90;;;;;;4992957;28;20049;-75
2022/03/12 01:16:24;;;;;;;12.43;7.38;;;0.80;99.90;;;;;;4989445;28;20136;-75
2022/03/12 01:18:53;;;;;;;11.88;6.50;;;0.80;99.90;;;;;;4991048;28;20056;-75
2022/03/12 01:21:22;;;;;;;13.10;7.13;;;0.80;99.90;;;;;;5009797;28;20514;-75
2022/03/12 01:23:51;;;;;;;12.82;7.32;;;0.80;99.90;;;;;;5009334;28;20064;-75
2022/03/12 01:26:20;;;;;;;11.10;7.78;;;0.90;99.90;;;;;;4989480;28;20120;-75
2022/03/12 01:28:48;;;;;;;20.77;9.38;;;0.90;99.90;;;;;;5004527;28;20058;-75
2022/03/12 01:31:16;;;;;;;19.67;10.27;;;0.90;99.90;;;;;;4983614;28;20411;-75
2022/03/12 01:33:44;;;;;;;16.08;9.13;;;0.90;99.90;;;;;;5008452;28;20510;-75
2022/03/12 01:36:14;;;;;;;16.88;9.18;;;0.90;99.90;;;;;;5007811;28;20049;-76
2022/03/12 01:38:48;;;;;;;20.38;9.57;;;1.00;99.90;;;;;;5007089;28;20160;-76
2022/03/12 01:41:15;;;;;;;15.32;8.43;;;1.00;99.90;;;;;;4992390;28;20053;-76
2022/03/12 01:43:43;;;;;;;18.85;10.00;;;1.00;99.90;;;;;;4990330;28;20085;-75
2022/03/12 01:46:11;;;;;;;19.38;7.78;;;1.00;99.90;;;;;;5009001;28;20148;-76
2022/03/12 01:48:42;;;;;;;13.50;8.35;;;1.00;99.90;;;;;;5008739;28;20057;-76
2022/03/12 01:51:09;;;;;;;18.38;9.10;;;0.90;99.90;;;;;;4992046;28;20125;-76
2022/03/12 01:53:38;;;;;;;18.38;8.00;;;0.90;99.90;;;;;;5007519;28;20052;-76
2022/03/12 01:56:06;;;;;;;16.70;7.97;;;0.90;99.90;;;;;;4991264;28;20054;-75
2022/03/12 01:58:34;;;;;;;17.52;8.48;;;0.90;99.90;;;;;;4995008;28;20057;-74
2022/03/12 02:01:02;;;;;;;11.73;8.05;;;0.90;99.90;;;;;;5012053;28;20058;-76
2022/03/12 02:03:32;;;;;;;16.98;8.68;;;0.90;99.90;;;;;;4994043;28;20042;-75
2022/03/12 02:06:00;;;;;;;15.38;8.60;;;0.90;99.90;;;;;;4978132;28;20571;-75
2022/03/12 02:08:29;;;;;;;19.98;9.15;;;0.80;99.90;;;;;;5013090;28;20062;-76
2022/03/12 02:10:59;;;;;;;17.92;8.95;;;0.80;99.90;;;;;;5012937;28;20050;-75
2022/03/12 02:13:29;;;;;;;16.15;9.25;;;0.80;99.90;;;;;;5013058;28;20088;-75
2022/03/12 02:16:07;;;;;;;15.40;8.45;;;0.80;99.90;;;;;;5012302;28;20046;-76
2022/03/12 02:18:36;;;;;;;13.80;8.40;;;0.80;99.90;;;;;;5010942;28;20057;-76
2022/03/12 02:21:04;;;;;;;15.25;8.27;;;0.70;99.90;;;;;;5012375;28;20096;-74
2022/03/12 02:23:46;;;;;;;17.17;9.27;;;0.70;99.90;;;;;;4997794;28;20248;-75
2022/03/12 02:26:13;;;;;;;14.68;8.40;;;0.70;99.90;;;;;;4995181;28;20084;-70
2022/03/12 02:28:41;;;;;;;16.67;8.65;;;0.70;99.90;;;;;;5012532;28;20047;-70
2022/03/12 02:31:09;;;;;;;13.82;9.02;;;0.70;99.90;;;;;;5010608;28;20057;-70
2022/03/12 02:33:36;;;;;;;13.18;8.60;;;0.60;99.90;;;;;;5011295;28;20054;-70
2022/03/12 02:36:07;;;;;;;17.95;8.68;;;0.60;99.90;;;;;;4979203;28;20052;-71
2022/03/12 02:38:35;;;;;;;16.77;8.65;;;0.50;99.90;;;;;;5013271;28;20054;-69
2022/03/12 02:41:10;;;;;;;15.48;9.27;;;0.60;99.90;;;;;;5009398;28;20046;-70
2022/03/12 02:43:43;;;;;;;17.35;9.25;;;0.50;99.90;;;;;;5011530;28;20341;-70
2022/03/12 02:46:11;;;;;;;22.17;10.27;;;0.50;99.90;;;;;;4985297;28;20077;-70
2022/03/12 02:48:39;;;;;;;19.98;11.02;;;0.50;99.90;;;;;;5009886;28;20046;-71
2022/03/12 02:51:07;;;;;;;20.15;11.32;;;0.40;99.90;;;;;;5009841;28;20661;-70
2022/03/12 02:53:35;;;;;;;19.33;10.35;;;0.40;99.90;;;;;;5011975;28;20046;-70
2022/03/12 02:56:03;;;;;;;21.27;11.35;;;0.40;99.90;;;;;;5011905;28;20068;-71
2022/03/12 02:58:31;;;;;;;19.55;11.55;;;0.40;99.90;;;;;;4993333;28;20046;-71
2022/03/12 03:00:58;;;;;;;21.17;11.25;;;0.30;99.90;;;;;;5011313;28;20127;-70
2022/03/12 03:03:26;;;;;;;27.70;11.43;;;0.30;99.90;;;;;;5010561;28;20057;-71
2022/03/12 03:05:55;;;;;;;22.38;10.35;;;0.30;99.90;;;;;;4995678;28;20141;-71
2022/03/12 03:08:24;;;;;;;26.15;12.10;;;0.20;99.90;;;;;;5009443;28;20403;-71
2022/03/12 03:10:53;;;;;;;29.20;15.40;;;0.20;99.90;;;;;;5011614;28;20042;-70
2022/03/12 03:13:44;;;;;;;27.42;13.07;;;0.20;99.90;;;;;;5011945;28;20073;-71
2022/03/12 03:16:21;;;;;;;25.15;11.23;;;0.20;99.90;;;;;;5009389;28;20050;-73
2022/03/12 03:18:53;;;;;;;22.92;11.95;;;0.20;99.90;;;;;;5008856;28;20140;-71
2022/03/12 03:21:23;;;;;;;20.13;10.73;;;0.20;99.90;;;;;;5010262;28;20103;-70
2022/03/12 03:23:51;;;;;;;19.23;10.68;;;0.20;99.90;;;;;;5013298;28;20073;-71
2022/03/12 03:26:25;;;;;;;18.00;10.65;;;0.20;99.90;;;;;;5008652;28;20044;-70
2022/03/12 03:28:54;;;;;;;20.38;10.50;;;0.10;99.90;;;;;;4992685;28;20457;-71
2022/03/12 03:31:21;;;;;;;22.40;10.38;;;0.10;99.90;;;;;;5008788;28;20513;-71
2022/03/12 03:33:49;;;;;;;22.13;10.63;;;0.00;99.90;;;;;;4994895;28;20417;-71
2022/03/12 03:36:18;;;;;;;16.02;11.13;;;0.00;99.90;;;;;;5009411;28;20058;-72
2022/03/12 03:38:46;;;;;;;21.95;10.25;;;0.00;99.90;;;;;;5009994;28;20050;-71
2022/03/12 03:41:14;;;;;;;17.15;9.88;;;-0.10;99.90;;;;;;5008674;28;20042;-72
2022/03/12 03:43:47;;;;;;;19.33;9.90;;;-0.10;99.90;;;;;;4994845;28;20426;-71
2022/03/12 03:46:20;;;;;;;16.00;9.43;;;-0.10;99.90;;;;;;5008307;28;20053;-70
2022/03/12 03:48:51;;;;;;;19.15;11.82;;;-0.10;99.90;;;;;;4996162;28;20056;-71
2022/03/12 03:51:19;;;;;;;19.90;11.65;;;-0.10;99.90;;;;;;5005632;28;20117;-69
2022/03/12 03:53:47;;;;;;;25.65;11.95;;;-0.10;99.90;;;;;;4978837;28;20046;-69
2022/03/12 03:56:15;;;;;;;18.95;11.65;;;-0.20;99.90;;;;;;4992730;28;20065;-70
2022/03/12 03:58:42;;;;;;;19.77;11.70;;;-0.20;99.90;;;;;;5008166;28;20081;-70
2022/03/12 04:01:13;;;;;;;21.50;11.40;;;-0.10;99.90;;;;;;4994220;28;20041;-69
2022/03/12 04:03:44;;;;;;;19.20;9.90;;;-0.20;99.90;;;;;;5009197;28;20053;-69
2022/03/12 04:06:12;;;;;;;17.27;9.98;;;-0.20;99.90;;;;;;5010690;28;20061;-70
2022/03/12 04:08:41;;;;;;;15.07;10.52;;;-0.20;99.90;;;;;;4975126;28;20076;-68
2022/03/12 04:11:14;;;;;;;22.50;12.18;;;-0.20;99.90;;;;;;5019785;28;20049;-68
2022/03/12 04:13:42;;;;;;;;;;;-0.20;99.90;;;;;;5009900;28;20421;-68
2022/03/12 04:16:09;;;;;;;19.70;10.65;;;-0.20;99.90;;;;;;5008726;28;19933;-70
2022/03/12 04:18:39;;;;;;;21.70;11.52;;;-0.20;99.90;;;;;;4992776;28;20041;-70
2022/03/12 04:21:08;;;;;;;17.73;10.18;;;-0.30;99.90;;;;;;5008893;28;20033;-70
2022/03/12 04:23:36;;;;;;;18.95;11.80;;;-0.20;99.90;;;;;;5010095;28;20050;-69
2022/03/12 04:26:04;;;;;;;19.10;11.65;;;-0.30;99.90;;;;;;5010839;28;20046;-74
2022/03/12 04:28:34;;;;;;;16.70;11.25;;;-0.30;99.90;;;;;;4993936;28;20046;-74
2022/03/12 04:31:03;;;;;;;19.50;10.95;;;-0.30;99.90;;;;;;5000443;28;20533;-75
2022/03/12 04:33:31;;;;;;;18.48;10.98;;;-0.30;99.90;;;;;;4992278;28;20086;-74
2022/03/12 04:36:00;;;;;;;17.50;11.00;;;-0.30;99.90;;;;;;5009613;28;20141;-76
2022/03/12 04:38:29;;;;;;;21.88;11.73;;;-0.20;99.90;;;;;;5006988;28;20445;-78
2022/03/12 04:40:57;;;;;;;16.65;10.40;;;-0.20;99.90;;;;;;4991507;28;20497;-75
2022/03/12 04:43:28;;;;;;;22.15;12.57;;;-0.20;99.90;;;;;;5010472;28;20485;-77
2022/03/12 04:45:58;;;;;;;22.42;11.77;;;-0.20;99.90;;;;;;5010568;28;20050;-75
2022/03/12 04:48:25;;;;;;;19.13;11.07;;;-0.20;99.90;;;;;;5011832;28;20061;-68
2022/03/12 04:50:54;;;;;;;17.27;10.98;;;-0.20;99.90;;;;;;5009464;28;20103;-70
2022/03/12 04:53:25;;;;;;;18.38;10.77;;;-0.20;99.90;;;;;;5008582;28;20407;-70
2022/03/12 04:55:58;;;;;;;18.17;11.10;;;-0.20;99.90;;;;;;5010285;28;20054;-69
2022/03/12 04:58:27;;;;;;;21.98;10.95;;;-0.10;99.90;;;;;;4991790;28;20045;-70
2022/03/12 05:00:58;;;;;;;20.05;11.48;;;-0.20;99.90;;;;;;4991888;28;20056;-70
2022/03/12 05:03:25;;;;;;;21.92;13.18;;;-0.20;99.90;;;;;;4967632;28;20045;-70
2022/03/12 05:05:54;;;;;;;18.90;11.88;;;-0.20;99.90;;;;;;4989993;28;20042;-71
2022/03/12 05:08:25;;;;;;;17.77;10.70;;;-0.20;99.90;;;;;;4991125;28;20056;-70
2022/03/12 05:10:58;;;;;;;15.65;11.02;;;-0.10;99.90;;;;;;5007692;28;20077;-70
2022/03/12 05:13:31;;;;;;;19.13;11.63;;;-0.10;99.90;;;;;;4991354;28;20061;-69
2022/03/12 05:16:05;;;;;;;17.25;10.18;;;-0.10;99.90;;;;;;5010436;28;20054;-69
2022/03/12 05:18:36;;;;;;;20.58;11.50;;;0.00;99.90;;;;;;5006208;28;20136;-71
2022/03/12 05:21:04;;;;;;;21.30;11.88;;;0.00;99.90;;;;;;5006646;28;20112;-70
2022/03/12 05:23:33;;;;;;;28.80;13.15;;;0.10;99.90;;;;;;5010431;28;20433;-69
2022/03/12 05:26:02;;;;;;;24.13;12.45;;;0.00;99.90;;;;;;5007615;28;20058;-69
2022/03/12 05:28:33;;;;;;;20.55;11.25;;;0.10;99.90;;;;;;5007920;28;20057;-69
2022/03/12 05:31:05;;;;;;;21.17;13.17;;;0.10;99.90;;;;;;5007044;28;20049;-70
2022/03/12 05:33:33;;;;;;;21.05;11.98;;;0.20;99.90;;;;;;5012566;28;20223;-70
2022/03/12 05:36:01;;;;;;;21.75;11.90;;;0.20;99.90;;;;;;4991167;28;20525;-69
2022/03/12 05:38:31;;;;;;;22.67;13.82;;;0.20;99.90;;;;;;5010313;28;20586;-70
2022/03/12 05:40:59;;;;;;;23.05;13.07;;;0.30;99.90;;;;;;4993521;28;20145;-70
2022/03/12 05:43:30;;;;;;;20.83;12.70;;;0.30;99.90;;;;;;5013691;28;20056;-70
2022/03/12 05:45:59;;;;;;;16.20;11.02;;;0.30;99.90;;;;;;5000314;28;20509;-69
2022/03/12 05:48:27;;;;;;;17.65;11.35;;;0.40;99.90;;;;;;5002915;28;20054;-70
2022/03/12 05:50:55;;;;;;;19.85;12.30;;;0.40;99.90;;;;;;4998257;28;20046;-70
2022/03/12 05:53:23;;;;;;;20.95;11.35;;;0.50;99.90;;;;;;4997388;28;20058;-70
2022/03/12 05:55:50;;;;;;;18.75;10.77;;;0.60;99.90;;;;;;5015490;28;20394;-70
2022/03/12 05:58:21;;;;;;;37.92;15.27;;;0.50;99.90;;;;;;5014486;28;20054;-77
2022/03/12 06:00:54;;;;;;;20.53;11.67;;;0.60;99.90;;;;;;4994369;28;20583;-77
2022/03/12 06:03:24;;;;;;;21.75;11.82;;;0.60;99.90;;;;;;5002905;28;20046;-77
2022/03/12 06:05:55;;;;;;;20.35;11.80;;;0.70;99.90;;;;;;5013909;28;20054;-78
2022/03/12 06:08:23;;;;;;;20.38;11.65;;;0.70;99.90;;;;;;5012670;28;20507;-78
2022/03/12 06:10:55;;;;;;;19.63;11.85;;;0.80;99.90;;;;;;5012265;28;20112;-77
2022/03/12 06:13:37;;;;;;;19.52;11.63;;;0.80;99.90;;;;;;4995338;28;20103;-70
2022/03/12 06:16:08;;;;;;;20.20;11.13;;;0.90;99.90;;;;;;4995644;28;20056;-73
2022/03/12 06:18:38;;;;;;;17.55;11.25;;;0.90;99.90;;;;;;4993294;28;20061;-71
2022/03/12 06:21:14;;;;;;;17.38;10.65;;;1.00;99.90;;;;;;5013287;28;20061;-71
2022/03/12 06:23:45;;;;;;;19.17;10.82;;;1.00;99.90;;;;;;4994814;28;20056;-78
2022/03/12 06:26:35;;;;;;;21.17;11.35;;;1.10;99.90;;;;;;4996093;28;20069;-76
2022/03/12 06:29:33;;;;;;;19.48;11.00;;;1.20;99.90;;;;;;5008693;28;20057;-78
2022/03/12 06:32:23;;;;;;;16.08;10.93;;;1.20;99.90;;;;;;4971947;28;20489;-77
2022/03/12 06:36:12;;;;;;;20.27;11.70;;;1.30;99.90;;;;;;4998824;28;20069;-77
2022/03/12 06:38:57;;;;;;;21.92;11.95;;;1.50;99.90;;;;;;4982742;28;20049;-72
2022/03/12 06:41:54;;;;;;;17.83;11.68;;;1.50;99.90;;;;;;5000696;28;20052;-76
2022/03/12 06:44:32;;;;;;;19.17;12.65;;;1.60;99.90;;;;;;4994175;28;20042;-69
2022/03/12 06:47:29;;;;;;;22.48;12.30;;;1.60;99.90;;;;;;5015084;28;20497;-70
2022/03/12 06:49:58;;;;;;;17.23;9.90;;;1.70;99.90;;;;;;5027939;28;20547;-70
2022/03/12 06:52:26;;;;;;;17.27;11.02;;;1.70;99.90;;;;;;5019917;28;20049;-69
2022/03/12 06:54:54;;;;;;;15.35;10.02;;;1.70;99.90;;;;;;5001608;28;20501;-69
2022/03/12 06:57:47;;;;;;;15.52;10.02;;;1.80;99.90;;;;;;5029197;28;20072;-76
2022/03/12 07:00:28;;;;;;;15.27;10.43;;;1.90;99.90;;;;;;5015138;28;20049;-78
2022/03/12 07:03:01;;;;;;;17.48;10.30;;;2.00;99.90;;;;;;5031396;28;20052;-69
2022/03/12 07:05:51;;;;;;;18.00;11.75;;;2.50;99.90;;;;;;5015917;28;20042;-70
2022/03/12 07:08:20;;;;;;;13.85;10.70;;;3.90;99.90;;;;;;4995434;28;20421;-78
2022/03/12 07:10:48;;;;;;;13.77;9.00;;;5.40;99.90;;;;;;5000832;28;20074;-78
2022/03/12 07:13:17;;;;;;;17.98;10.45;;;6.60;99.90;;;;;;4998971;28;20144;-77
2022/03/12 07:15:44;;;;;;;16.38;9.57;;;7.70;99.90;;;;;;5011734;28;20076;-77
2022/03/12 07:18:17;;;;;;;14.15;9.68;;;8.60;99.90;;;;;;4995591;28;20053;-77
2022/03/12 07:20:45;;;;;;;12.02;10.52;;;9.40;99.90;;;;;;4976535;28;20074;-71
2022/03/12 07:23:12;;;;;;;13.43;10.25;;;10.20;99.90;;;;;;5013760;28;20046;-70
2022/03/12 07:25:39;;;;;;;12.30;10.13;;;10.80;99.90;;;;;;4994555;28;20111;-70
2022/03/12 07:28:07;;;;;;;16.75;10.35;;;11.30;99.90;;;;;;4995332;28;20052;-71
2022/03/12 07:30:35;;;;;;;11.30;9.45;;;11.60;99.00;;;;;;5010478;28;20410;-68
2022/03/12 07:33:22;;;;;;;10.20;8.95;;;12.00;98.10;;;;;;4993387;28;20049;-69
2022/03/12 07:35:49;;;;;;;14.63;9.63;;;12.40;93.10;;;;;;4992794;28;20050;-69
2022/03/12 07:38:18;;;;;;;12.25;10.10;;;12.60;91.00;;;;;;5011466;28;20050;-69
2022/03/12 07:40:45;;;;;;;13.50;9.60;;;12.80;87.80;;;;;;5010276;28;20065;-69
2022/03/12 07:43:13;;;;;;;12.30;9.45;;;12.90;83.30;;;;;;5011417;28;20054;-70
2022/03/12 07:45:40;;;;;;;11.30;9.70;;;12.90;82.50;;;;;;5010549;28;20060;-68
2022/03/12 07:48:08;;;;;;;12.55;9.35;;;12.70;81.90;;;;;;4978513;28;20104;-69
2022/03/12 07:51:14;;;;;;;13.30;10.07;;;12.40;85.10;;;;;;5005321;28;20141;-70
2022/03/12 07:53:42;;;;;;;20.15;10.00;;;12.20;83.40;;;;;;5003009;28;20145;-76
2022/03/12 07:56:11;;;;;;;17.60;10.18;;;11.60;87.80;;;;;;5009412;28;20505;-77
2022/03/12 07:58:38;;;;;;;13.35;10.35;;;11.30;89.90;;;;;;5013317;28;20057;-77
2022/03/12 08:01:08;;;;;;;16.65;9.95;;;11.10;90.70;;;;;;5021246;28;20053;-77
2022/03/12 08:03:36;;;;;;;16.55;11.45;;;11.10;91.80;;;;;;5009797;28;20060;-77
2022/03/12 08:06:04;;;;;;;19.55;10.55;;;11.30;91.30;;;;;;5011063;28;20088;-76
2022/03/12 08:08:34;;;;;;;16.08;10.45;;;11.60;90.30;;;;;;5008295;28;20056;-75
2022/03/12 08:13:46;;;;;;;15.20;9.85;;;11.50;90.00;;;;;;5011135;28;20144;-70
2022/03/12 08:16:16;;;;;;;17.15;10.23;;;11.70;87.40;;;;;;5012236;28;20052;-71
2022/03/12 08:18:44;;;;;;;16.42;10.88;;;12.00;84.90;;;;;;5011382;28;20835;-71
2022/03/12 08:21:13;;;;;;;18.38;10.65;;;12.30;84.00;;;;;;5020247;28;20049;-70
2022/03/12 08:23:42;;;;;;;16.88;10.63;;;13.00;81.30;;;;;;5016012;28;20482;-70
2022/03/12 08:26:10;;;;;;;16.25;10.13;;;13.80;76.30;;;;;;5011949;28;20131;-69
2022/03/12 08:28:37;;;;;;;16.70;10.05;;;14.60;72.00;;;;;;5013294;28;20080;-69
2022/03/12 08:31:06;;;;;;;13.85;9.38;;;15.10;69.10;;;;;;5009721;28;20064;-70
2022/03/12 08:33:36;;;;;;;19.90;10.30;;;15.60;65.60;;;;;;5006898;28;20070;-77
2022/03/12 08:36:04;;;;;;;19.67;10.73;;;15.80;63.80;;;;;;5024271;28;20053;-77
2022/03/12 08:38:32;;;;;;;14.80;9.98;;;16.10;63.20;;;;;;4992197;28;20103;-77
2022/03/12 08:41:05;;;;;;;20.20;10.55;;;16.50;60.90;;;;;;5022560;28;20492;-77
2022/03/12 08:43:33;;;;;;;24.98;11.50;;;16.60;60.20;;;;;;5026301;28;20509;-77
2022/03/12 08:46:01;;;;;;;14.85;9.38;;;16.70;59.60;;;;;;5026553;28;20089;-75
2022/03/12 08:48:29;;;;;;;16.52;9.85;;;16.90;59.00;;;;;;5010082;28;20061;-76
2022/03/12 08:51:12;;;;;;;15.25;13.25;;;17.20;58.30;;;;;;4992838;28;20064;-76
2022/03/12 08:53:39;;;;;;;16.55;10.43;;;17.40;57.20;;;;;;4984779;28;20567;-78
2022/03/12 08:56:09;;;;;;;22.52;10.32;;;17.50;57.20;;;;;;5009496;28;20068;-78
2022/03/12 08:58:37;;;;;;;16.73;9.70;;;17.70;57.30;;;;;;5013821;28;20049;-75
2022/03/12 09:01:08;;;;;;;26.35;10.63;;;17.80;56.30;;;;;;4970349;28;20052;-76
2022/03/12 09:03:35;;;;;;;16.05;9.85;;;18.10;55.60;;;;;;5004576;28;20062;-77
2022/03/12 09:06:03;;;;;;;17.70;10.43;;;18.30;55.00;;;;;;4991502;28;20045;-74
2022/03/12 09:08:31;;;;;;;16.63;9.82;;;18.50;54.50;;;;;;4992867;28;20096;-74
2022/03/12 09:10:59;;;;;;;20.50;10.48;;;18.60;53.60;;;;;;4977255;28;20121;-75
2022/03/12 09:13:28;;;;;;;18.45;10.45;;;18.60;53.70;;;;;;4991879;28;20144;-76
2022/03/12 09:15:57;;;;;;;19.83;11.15;;;18.70;53.30;;;;;;5004631;28;20429;-75
2022/03/12 09:18:26;;;;;;;19.15;11.50;;;18.90;53.20;;;;;;4991295;28;20042;-77
2022/03/12 09:20:55;;;;;;;14.43;10.52;;;19.00;53.00;;;;;;5009771;28;20057;-76
2022/03/12 09:23:57;;;;;;;13.93;10.27;;;19.30;52.30;;;;;;5008847;28;20050;-77
2022/03/12 09:26:25;;;;;;;18.35;10.43;;;19.50;51.50;;;;;;5010453;28;20038;-77
2022/03/12 09:28:54;;;;;;;22.05;10.35;;;19.40;51.70;;;;;;4991374;28;20061;-71
2022/03/12 09:31:22;;;;;;;18.10;10.98;;;19.50;52.00;;;;;;5010103;28;20585;-69
2022/03/12 09:35:09;;;;;;;16.08;9.70;;;19.40;51.30;;;;;;5010266;28;20123;-77
2022/03/12 09:41:08;;;;;;;22.75;9.88;;;19.40;51.90;;;;;;4758910;27;20517;-70
2022/03/12 09:44:05;;;;;;;18.15;10.20;;;19.60;50.90;;;;;;4891075;29;20048;-70
2022/03/12 09:46:36;;;;;;;20.30;11.02;;;19.10;51.50;;;;;;4910575;29;20428;-69
2022/03/12 09:49:05;;;;;;;18.30;11.02;;;19.00;51.60;;;;;;4892375;29;20478;-69
2022/03/12 09:51:32;;;;;;;21.38;10.90;;;18.50;51.90;;;;;;4892399;29;20528;-77
2022/03/12 09:54:00;;;;;;;17.15;9.95;;;18.10;52.60;;;;;;4892813;29;20053;-75
2022/03/12 09:56:27;;;;;;;20.58;10.57;;;17.40;53.30;;;;;;4893852;29;20151;-76
2022/03/12 09:58:57;;;;;;;16.65;10.23;;;16.90;54.60;;;;;;4907047;29;20148;-75
2022/03/12 10:01:24;;;;;;;17.38;10.23;;;16.50;55.30;;;;;;4886318;29;20064;-76
2022/03/12 10:03:52;;;;;;;16.27;11.02;;;16.30;55.70;;;;;;4892940;29;20112;-76
2022/03/12 10:06:19;;;;;;;19.95;10.98;;;16.00;56.50;;;;;;4895078;29;20053;-76
2022/03/12 10:08:47;;;;;;;23.23;11.05;;;15.80;57.30;;;;;;4906960;29;20053;-78
2022/03/12 10:11:14;;;;;;;19.08;9.93;;;15.90;57.40;;;;;;4892406;29;20412;-75
2022/03/12 10:13:42;;;;;;;19.80;11.18;;;15.90;57.40;;;;;;4893002;29;20044;-71
2022/03/12 10:16:11;;;;;;;23.55;10.82;;;16.20;56.60;;;;;;4895048;29;20048;-70
2022/03/12 10:18:41;;;;;;;28.92;12.07;;;16.50;56.30;;;;;;4892081;29;20056;-70
2022/03/12 10:21:09;;;;;;;21.73;10.57;;;17.40;56.00;;;;;;4883582;29;20080;-69
2022/03/12 10:23:36;;;;;;;28.83;12.00;;;18.30;53.80;;;;;;4900970;29;20711;-70
2022/03/12 10:26:04;;;;;;;20.45;11.27;;;19.10;52.30;;;;;;4894904;29;20051;-70
2022/03/12 10:28:36;;;;;;;18.73;11.73;;;19.50;51.30;;;;;;4894553;29;20152;-75
2022/03/12 10:31:05;;;;;;;17.60;12.10;;;19.50;51.00;;;;;;4894826;29;20069;-78
2022/03/12 10:33:36;;;;;;;20.42;10.55;;;19.20;51.20;;;;;;4896377;29;20139;-79
2022/03/12 10:36:12;;;;;;;22.48;10.00;;;19.30;51.20;;;;;;4894771;29;20147;-76
2022/03/12 10:38:42;;;;;;;19.58;10.35;;;19.60;51.20;;;;;;4894844;29;20124;-75
2022/03/12 10:41:11;;;;;;;22.10;11.73;;;20.30;50.50;;;;;;4895975;29;20052;-77
2022/03/12 10:43:52;;;;;;;17.20;11.10;;;20.80;49.00;;;;;;4898239;29;20517;-76
2022/03/12 10:46:23;;;;;;;19.27;10.73;;;20.80;48.30;;;;;;4893968;29;20055;-77
2022/03/12 10:48:56;;;;;;;24.33;11.73;;;20.70;48.40;;;;;;4896444;29;20091;-76
2022/03/12 10:51:26;;;;;;;19.33;11.85;;;20.50;48.60;;;;;;4897344;29;20048;-76
2022/03/12 10:54:04;;;;;;;18.02;11.55;;;19.90;49.70;;;;;;4894985;29;20108;-78
2022/03/12 10:56:44;;;;;;;16.60;12.00;;;19.60;50.10;;;;;;4895059;29;20056;-75
2022/03/12 10:59:14;;;;;;;21.27;12.80;;;;;;;;;;4895607;29;20068;-73
2022/03/12 11:01:51;;;;;;;17.30;12.25;;;18.40;51.00;;;;;;4911713;29;20080;-76
2022/03/12 11:04:26;;;;;;;31.42;12.98;;;18.10;52.50;;;;;;4894434;29;20057;-76
2022/03/12 11:06:57;;;;;;;25.70;12.45;;;17.70;53.20;;;;;;4894856;29;20076;-77
2022/03/12 11:09:36;;;;;;;26.13;11.48;;;17.70;53.70;;;;;;4896244;29;20052;-78
2022/03/12 11:12:29;;;;;;;25.95;12.00;;;18.20;52.90;;;;;;4896562;29;20064;-75
2022/03/12 11:15:06;;;;;;;;;;;18.60;52.00;;;;;;4893002;29;20453;-75
2022/03/12 11:17:44;;;;;;;22.42;11.50;;;18.70;52.20;;;;;;4895074;29;19931;-75
2022/03/12 11:20:21;;;;;;;23.05;10.98;;;19.00;51.20;;;;;;4897426;29;20536;-78
2022/03/12 11:22:55;;;;;;;19.55;11.35;;;18.80;51.30;;;;;;4895028;29;20640;-78
2022/03/12 11:25:23;;;;;;;24.20;10.82;;;18.40;52.00;;;;;;4878251;29;20415;-76
2022/03/12 11:27:51;;;;;;;26.98;11.80;;;18.40;52.10;;;;;;4894272;29;20410;-74
2022/03/12 11:30:23;;;;;;;17.77;11.10;;;18.70;52.00;;;;;;4895752;29;20133;-76
2022/03/12 11:33:06;;;;;;;24.57;10.70;;;18.80;51.70;;;;;;4893087;29;20070;-77
2022/03/12 11:35:38;;;;;;;22.30;12.13;;;19.10;51.00;;;;;;4897621;29;20321;-78
2022/03/12 11:38:17;;;;;;;23.42;12.57;;;19.40;51.50;;;;;;4907330;29;20464;-76
2022/03/12 11:40:47;;;;;;;26.02;11.00;;;19.90;50.20;;;;;;4892558;29;20052;-76
2022/03/12 11:43:27;;;;;;;17.80;11.50;;;20.40;49.40;;;;;;4896017;29;20079;-77
2022/03/12 11:45:59;;;;;;;17.98;11.25;;;20.80;49.00;;;;;;4876139;29;20061;-78
2022/03/12 11:48:28;;;;;;;19.10;10.70;;;20.90;48.40;;;;;;4892101;29;20135;-77
2022/03/12 11:51:03;;;;;;;18.05;10.45;;;21.10;47.60;;;;;;4888556;29;20072;-71
2022/03/12 11:53:39;;;;;;;24.35;11.23;;;21.10;47.90;;;;;;4889528;29;20128;-70
2022/03/12 11:56:07;;;;;;;24.70;11.07;;;21.40;47.80;;;;;;4898307;29;20048;-71
2022/03/12 11:58:40;;;;;;;19.98;10.57;;;21.70;46.70;;;;;;4893878;29;20505;-72
2022/03/12 12:01:11;;;;;;;18.00;10.35;;;21.20;46.80;;;;;;4894046;29;20139;-71
2022/03/12 12:03:40;;;;;;;16.17;10.15;;;21.20;47.40;;;;;;4895100;29;20453;-71
2022/03/12 12:06:09;;;;;;;16.00;11.15;;;21.60;46.60;;;;;;4895882;29;20116;-70
2022/03/12 12:08:40;;;;;;;14.30;9.68;;;21.60;46.80;;;;;;4892597;29;20053;-71
2022/03/12 12:11:07;;;;;;;24.30;12.57;;;21.90;46.50;;;;;;4892852;29;20053;-71
2022/03/12 12:13:35;;;;;;;31.90;12.10;;;21.20;46.60;;;;;;4893655;29;20056;-70
2022/03/12 12:16:04;;;;;;;28.58;12.18;;;20.40;48.10;;;;;;4895407;29;20060;-70
2022/03/12 12:18:32;;;;;;;28.92;12.82;;;19.70;48.80;;;;;;4875572;29;20470;-70
2022/03/12 12:20:59;;;;;;;33.50;11.98;;;18.90;50.10;;;;;;4893761;29;20056;-69
2022/03/12 12:23:28;;;;;;;28.65;13.30;;;18.30;51.10;;;;;;4894244;29;20514;-69
2022/03/12 12:26:08;;;;;;;31.83;13.57;;;17.50;52.40;;;;;;4910116;29;20049;-70
2022/03/12 12:28:49;;;;;;;27.80;13.88;;;16.60;53.90;;;;;;4893297;29;20048;-70
2022/03/12 12:31:24;;;;;;;31.60;13.40;;;16.20;54.70;;;;;;4887355;29;20064;-70
2022/03/12 12:33:52;;;;;;;32.50;12.32;;;15.70;55.60;;;;;;4896484;29;20057;-71
2022/03/12 12:36:22;;;;;;;36.67;12.63;;;15.10;57.00;;;;;;4892871;29;20048;-76
2022/03/12 12:39:09;;;;;;;30.23;11.80;;;14.70;58.20;;;;;;4892987;29;20064;-78
2022/03/12 12:41:58;;;;;;;26.27;12.07;;;14.20;59.00;;;;;;4889350;29;20085;-79
2022/03/12 12:44:39;;;;;;;26.02;11.32;;;13.80;60.10;;;;;;4886276;29;20502;-78
2022/03/12 12:47:10;;;;;;;23.85;12.13;;;13.40;61.10;;;;;;4891634;29;20056;-77
2022/03/12 12:49:40;;;;;;;25.48;12.32;;;13.10;62.40;;;;;;4876334;29;20056;-72
2022/03/12 12:52:10;;;;;;;25.92;11.52;;;12.80;63.50;;;;;;4890651;29;20049;-73
2022/03/12 12:54:59;;;;;;;20.63;12.13;;;12.60;64.10;;;;;;4890800;29;20052;-72
2022/03/12 12:57:45;;;;;;;24.00;12.50;;;12.20;65.20;;;;;;4872564;29;20053;-74
2022/03/12 13:00:46;;;;;;;23.92;11.65;;;12.10;66.10;;;;;;4891578;29;20554;-72
2022/03/12 13:03:20;;;;;;;24.05;10.00;;;12.20;66.70;;;;;;4909230;29;20055;-78
2022/03/12 13:06:06;;;;;;;24.35;12.02;;;12.10;66.90;;;;;;4906896;29;20525;-79